Time;durP1;ratioP1;P1;durP2;ratioP2;P2;SDS_P1;SDS_P2;PMS_P1;PMS_P2;Temp;Humidity;BMP_temperature;BMP_pressure;BME280_temperature;BME280_humidity;BME280_pressure;Samples;Min_cycle;Max_cycle;Signal;HPM_P1;HPM_P2
2022/10/09 00:02:43;;;;;;;;;;;21.60;44.50;20.40;102131.00;;;;5094732;28;19923;-66
2022/10/09 00:05:29;;;;;;;;;;;21.60;44.50;20.40;102132.00;;;;5097367;28;19920;-66
2022/10/09 00:08:15;;;;;;;;;;;21.60;44.50;20.40;102130.00;;;;5114065;27;19923;-66
2022/10/09 00:11:05;;;;;;;;;;;21.50;44.50;20.40;102133.00;;;;5081991;28;19920;-66
2022/10/09 00:13:51;;;;;;;;;;;21.50;44.50;20.40;102138.00;;;;5083257;28;19927;-66
2022/10/09 00:16:37;;;;;;;;;;;21.50;44.50;20.40;102141.00;;;;5086484;28;19916;-66
2022/10/09 00:19:23;;;;;;;;;;;21.60;44.50;20.40;102138.00;;;;5079631;28;20286;-66
2022/10/09 00:22:09;;;;;;;;;;;21.50;44.50;20.40;102151.00;;;;5072948;28;20377;-66
2022/10/09 00:24:55;;;;;;;;;;;21.50;44.40;20.40;102145.00;;;;5083024;28;20025;-66
2022/10/09 00:27:41;;;;;;;;;;;21.50;44.40;20.40;102144.00;;;;5074375;28;19955;-66
2022/10/09 00:30:27;;;;;;;;;;;21.50;44.40;20.40;102152.00;;;;5077416;28;19924;-66
2022/10/09 00:33:13;;;;;;;;;;;21.90;44.60;20.30;102143.00;;;;5081035;28;19939;-66
2022/10/09 00:36:04;;;;;;;;;;;21.50;45.10;20.30;102146.00;;;;5070810;28;20037;-66
2022/10/09 00:38:50;;;;;;;;;;;21.50;44.40;20.30;102145.00;;;;5088653;28;20002;-66
2022/10/09 00:41:36;;;;;;;;;;;21.50;44.40;20.30;102150.00;;;;5077226;28;19997;-66
2022/10/09 00:44:46;;;;;;;;;;;21.50;44.40;20.30;102149.00;;;;5084451;28;19916;-66
2022/10/09 00:47:36;;;;;;;;;;;21.50;44.40;20.30;102147.00;;;;5082500;28;20418;-67
2022/10/09 00:50:29;;;;;;;;;;;21.50;44.40;20.30;102145.00;;;;5075516;28;19917;-67
2022/10/09 00:53:16;;;;;;;;;;;21.50;44.40;20.30;102145.00;;;;5094415;28;20388;-66
2022/10/09 00:56:02;;;;;;;;;;;21.50;44.40;20.30;102145.00;;;;5066498;28;20811;-66
2022/10/09 00:58:52;;;;;;;;;;;21.50;44.40;20.30;102153.00;;;;5080792;28;20250;-67
2022/10/09 01:01:39;;;;;;;;;;;21.50;44.40;20.30;102151.00;;;;5078885;28;20456;-66
2022/10/09 01:04:25;;;;;;;;;;;21.40;44.40;20.30;102149.00;;;;5092032;28;20674;-67
2022/10/09 01:07:43;;;;;;;;;;;21.50;44.40;20.30;102160.00;;;;5077082;28;19932;-66
2022/10/09 01:10:53;;;;;;;;;;;21.40;44.30;20.20;102153.00;;;;5046309;28;19924;-67
2022/10/09 01:13:48;;;;;;;;;;;21.40;44.30;20.20;102150.00;;;;5073433;28;19917;-66
2022/10/09 01:16:44;;;;;;;;;;;21.40;44.40;20.20;102153.00;;;;5080035;28;20361;-67
2022/10/09 01:19:58;;;;;;;;;;;21.40;44.40;20.20;102157.00;;;;5087863;28;20007;-66
2022/10/09 01:23:02;;;;;;;;;;;21.40;44.40;20.20;102152.00;;;;5086794;28;19923;-66
2022/10/09 01:25:53;;;;;;;;;;;21.40;44.30;20.20;102146.00;;;;5073715;28;19977;-66
2022/10/09 01:28:46;;;;;;;;;;;21.40;44.40;20.20;102147.00;;;;5075942;28;19959;-66
2022/10/09 01:31:34;;;;;;;;;;;21.40;44.30;20.20;102143.00;;;;5098771;28;19955;-66
2022/10/09 01:34:20;;;;;;;;;;;21.40;44.30;20.20;102141.00;;;;5081353;28;19916;-66
2022/10/09 01:37:06;;;;;;;;;;;21.30;44.30;20.20;102142.00;;;;5050553;28;19920;-66
2022/10/09 01:39:52;;;;;;;;;;;21.30;44.30;20.20;102140.00;;;;5052650;28;19916;-66
2022/10/09 01:42:38;;;;;;;;;;;21.30;44.30;20.20;102145.00;;;;5062873;28;19916;-66
2022/10/09 01:45:24;;;;;;;;;;;21.30;44.90;20.20;102140.00;;;;5094573;28;20003;-66
2022/10/09 01:48:13;;;;;;;;;;;21.40;44.30;20.20;102138.00;;;;5079954;28;20150;-66
2022/10/09 01:50:59;;;;;;;;;;;21.30;44.20;20.20;102136.00;;;;5087982;28;19923;-66
2022/10/09 01:53:45;;;;;;;;;;;21.40;44.30;20.20;102134.00;;;;5077755;28;19927;-66
2022/10/09 01:56:32;;;;;;;;;;;21.30;44.20;20.10;102129.00;;;;5074350;28;19928;-66
2022/10/09 01:59:18;;;;;;;;;;;21.30;44.20;20.10;102138.00;;;;5080691;28;19974;-66
2022/10/09 02:02:05;;;;;;;;;;;21.30;44.20;20.10;102133.00;;;;5088743;27;20274;-66
2022/10/09 02:04:51;;;;;;;;;;;21.30;44.20;20.10;102140.00;;;;5078433;28;20275;-66
2022/10/09 02:07:37;;;;;;;;;;;21.30;44.20;20.10;102137.00;;;;5095764;28;20272;-66
2022/10/09 02:10:23;;;;;;;;;;;21.30;44.20;20.10;102129.00;;;;5094599;27;19920;-66
2022/10/09 02:13:09;;;;;;;;;;;21.40;44.20;20.10;102128.00;;;;5089434;28;19971;-67
2022/10/09 02:16:02;;;;;;;;;;;21.20;44.10;20.10;102121.00;;;;5077260;28;19916;-66
2022/10/09 02:18:58;;;;;;;;;;;21.30;44.20;20.10;102128.00;;;;5090494;28;19924;-67
2022/10/09 02:21:49;;;;;;;;;;;21.30;44.20;20.10;102126.00;;;;5102388;27;19919;-66
2022/10/09 02:24:36;;;;;;;;;;;21.30;44.20;20.10;102116.00;;;;5085727;28;20186;-66
2022/10/09 02:27:22;;;;;;;;;;;21.30;44.20;20.10;102118.00;;;;5076502;28;20021;-66
2022/10/09 02:30:08;;;;;;;;;;;21.30;44.20;20.10;102117.00;;;;5053638;28;20323;-66
2022/10/09 02:32:54;;;;;;;;;;;21.30;44.10;20.10;102122.00;;;;5064632;28;19916;-66
2022/10/09 02:35:40;;;;;;;;;;;21.30;44.10;20.10;102111.00;;;;5095957;28;19927;-66
2022/10/09 02:38:26;;;;;;;;;;;21.30;44.10;20.10;102115.00;;;;5098541;27;19934;-66
2022/10/09 02:41:12;;;;;;;;;;;21.30;44.10;20.10;102116.00;;;;5096501;27;19916;-67
2022/10/09 02:43:58;;;;;;;;;;;21.30;44.20;20.10;102127.00;;;;5082026;28;20269;-66
2022/10/09 02:46:44;;;;;;;;;;;21.30;44.10;20.00;102109.00;;;;5069041;28;20010;-66
2022/10/09 02:49:30;;;;;;;;;;;21.30;44.10;20.10;102112.00;;;;5078050;28;19977;-66
2022/10/09 02:52:16;;;;;;;;;;;21.30;44.10;20.10;102113.00;;;;5067354;28;19927;-66
2022/10/09 02:55:02;;;;;;;;;;;21.30;44.10;20.00;102121.00;;;;5079185;28;19920;-66
2022/10/09 02:57:48;;;;;;;;;;;21.30;44.10;20.00;102114.00;;;;5077827;28;19921;-66
2022/10/09 03:00:34;;;;;;;;;;;21.20;44.00;20.00;102115.00;;;;5076272;28;19924;-66
2022/10/09 03:03:20;;;;;;;;;;;21.20;44.10;20.00;102114.00;;;;5092430;28;19924;-67
2022/10/09 03:06:09;;;;;;;;;;;21.20;44.10;20.00;102120.00;;;;5076421;28;19928;-66
2022/10/09 03:08:55;;;;;;;;;;;21.20;44.10;20.00;102112.00;;;;5077493;28;20010;-66
2022/10/09 03:11:41;;;;;;;;;;;21.20;44.00;20.00;102119.00;;;;5081527;28;19923;-66
2022/10/09 03:14:27;;;;;;;;;;;21.20;44.00;20.00;102115.00;;;;5079903;28;19947;-66
2022/10/09 03:17:13;;;;;;;;;;;21.20;44.00;20.00;102113.00;;;;5073815;28;19920;-66
2022/10/09 03:19:59;;;;;;;;;;;21.20;44.00;20.00;102116.00;;;;5074518;28;19920;-66
2022/10/09 03:22:45;;;;;;;;;;;21.20;44.10;20.00;102113.00;;;;5076081;28;20292;-66
2022/10/09 03:25:31;;;;;;;;;;;21.20;44.00;20.00;102119.00;;;;5088545;28;19916;-66
2022/10/09 03:28:17;;;;;;;;;;;21.20;44.00;20.00;102115.00;;;;5081996;28;19927;-66
2022/10/09 03:31:03;;;;;;;;;;;21.20;44.00;20.00;102118.00;;;;5076852;28;19997;-66
2022/10/09 03:33:49;;;;;;;;;;;21.20;44.00;20.00;102117.00;;;;5083471;28;19925;-66
2022/10/09 03:36:35;;;;;;;;;;;21.20;44.00;20.00;102108.00;;;;5071748;28;20362;-66
2022/10/09 03:39:21;;;;;;;;;;;21.20;44.10;20.00;102110.00;;;;5077868;28;19947;-66
2022/10/09 03:42:07;;;;;;;;;;;21.20;44.00;20.00;102110.00;;;;5079562;28;19916;-66
2022/10/09 03:44:53;;;;;;;;;;;21.20;44.00;20.00;102115.00;;;;5079187;28;19920;-66
2022/10/09 03:47:39;;;;;;;;;;;21.20;44.00;20.00;102110.00;;;;5081027;28;19916;-66
2022/10/09 03:50:25;;;;;;;;;;;21.20;44.00;20.00;102106.00;;;;5071987;28;20327;-66
2022/10/09 03:53:11;;;;;;;;;;;21.20;44.00;20.00;102113.00;;;;5066877;28;19916;-66
2022/10/09 03:55:57;;;;;;;;;;;21.20;44.00;20.00;102117.00;;;;5049542;28;20352;-67
2022/10/09 03:58:43;;;;;;;;;;;21.20;43.90;20.00;102126.00;;;;5074155;28;19931;-66
2022/10/09 04:01:30;;;;;;;;;;;21.20;44.00;19.90;102116.00;;;;5080370;28;19915;-66
2022/10/09 04:04:16;;;;;;;;;;;21.20;44.00;19.90;102120.00;;;;5075183;28;19916;-67
2022/10/09 04:07:02;;;;;;;;;;;21.20;44.00;19.90;102127.00;;;;5093968;27;19916;-67
2022/10/09 04:09:48;;;;;;;;;;;21.20;43.90;19.90;102125.00;;;;5077702;28;19927;-66
2022/10/09 04:12:34;;;;;;;;;;;21.10;43.90;19.90;102130.00;;;;5079081;28;19920;-67
2022/10/09 04:15:20;;;;;;;;;;;21.10;43.90;19.90;102132.00;;;;5075251;28;20352;-67
2022/10/09 04:18:06;;;;;;;;;;;21.20;44.00;19.90;102136.00;;;;5084637;28;20431;-66
2022/10/09 04:20:53;;;;;;;;;;;21.10;43.90;19.90;102134.00;;;;5074368;28;19916;-66
2022/10/09 04:23:39;;;;;;;;;;;21.20;44.00;19.90;102133.00;;;;5064388;28;19922;-66
2022/10/09 04:26:25;;;;;;;;;;;21.10;43.90;19.90;102134.00;;;;5074193;28;19927;-66
2022/10/09 04:29:11;;;;;;;;;;;21.10;43.90;19.90;102133.00;;;;5066859;28;20344;-67
2022/10/09 04:31:57;;;;;;;;;;;21.10;43.90;19.90;102130.00;;;;5077176;28;19970;-66
2022/10/09 04:34:43;;;;;;;;;;;21.10;43.90;19.90;102127.00;;;;5080595;28;19932;-66
2022/10/09 04:37:29;;;;;;;;;;;21.10;43.90;19.90;102126.00;;;;5082502;28;19916;-66
2022/10/09 04:40:15;;;;;;;;;;;21.10;43.90;19.90;102121.00;;;;5074690;28;19947;-66
2022/10/09 04:43:01;;;;;;;;;;;21.10;43.90;19.90;102118.00;;;;5091946;28;19970;-66
2022/10/09 04:45:46;;;;;;;;;;;21.10;43.80;19.90;102121.00;;;;5075986;28;19921;-66
2022/10/09 04:48:37;;;;;;;;;;;21.10;43.80;19.90;102119.00;;;;5062731;28;19916;-66
2022/10/09 04:51:23;;;;;;;;;;;21.10;43.80;19.90;102109.00;;;;5089354;28;19920;-67
2022/10/09 04:54:09;;;;;;;;;;;21.10;43.90;19.90;102111.00;;;;5088702;28;19978;-66
2022/10/09 04:56:55;;;;;;;;;;;21.10;43.80;19.90;102121.00;;;;5068731;28;20380;-66
2022/10/09 04:59:41;;;;;;;;;;;21.10;43.80;19.90;102122.00;;;;5078700;28;20445;-66
2022/10/09 05:02:27;;;;;;;;;;;21.10;43.80;19.90;102117.00;;;;5082541;28;19924;-66
2022/10/09 05:05:13;;;;;;;;;;;21.10;43.80;19.90;102130.00;;;;5079356;28;19916;-66
2022/10/09 05:07:59;;;;;;;;;;;21.10;43.80;19.80;102122.00;;;;5088087;28;19942;-66
2022/10/09 05:10:45;;;;;;;;;;;21.10;43.80;19.80;102122.00;;;;5077938;28;20147;-66
2022/10/09 05:13:33;;;;;;;;;;;21.10;43.80;19.80;102126.00;;;;5084178;28;20049;-66
2022/10/09 05:16:21;;;;;;;;;;;21.10;43.80;19.80;102114.00;;;;5070172;28;19920;-67
2022/10/09 05:19:07;;;;;;;;;;;21.00;43.80;19.80;102114.00;;;;5082965;28;19964;-66
2022/10/09 05:21:53;;;;;;;;;;;21.10;43.80;19.80;102116.00;;;;5077422;28;19924;-66
2022/10/09 05:24:39;;;;;;;;;;;21.00;43.70;19.80;102107.00;;;;5075451;28;19920;-66
2022/10/09 05:27:25;;;;;;;;;;;21.10;43.80;19.80;102116.00;;;;5087612;28;19917;-67
2022/10/09 05:30:11;;;;;;;;;;;21.00;43.70;19.80;102118.00;;;;5071732;28;19925;-66
2022/10/09 05:32:57;;;;;;;;;;;21.00;43.70;19.80;102120.00;;;;5084394;28;20297;-67
2022/10/09 05:35:50;;;;;;;;;;;21.00;43.90;19.80;102119.00;;;;5078182;28;19920;-66
2022/10/09 05:38:36;;;;;;;;;;;21.00;43.70;19.80;102115.00;;;;5088841;27;20144;-67
2022/10/09 05:41:22;;;;;;;;;;;21.00;43.70;19.80;102128.00;;;;5085784;28;19920;-66
2022/10/09 05:44:09;;;;;;;;;;;21.00;43.70;19.80;102112.00;;;;5077896;28;20193;-66
2022/10/09 05:46:55;;;;;;;;;;;21.00;43.70;19.80;102120.00;;;;5049101;28;19923;-66
2022/10/09 05:49:41;;;;;;;;;;;21.00;44.40;19.80;102120.00;;;;5080813;28;19935;-66
2022/10/09 05:52:27;;;;;;;;;;;21.00;43.70;19.80;102122.00;;;;5082627;28;19920;-66
2022/10/09 05:55:13;;;;;;;;;;;21.00;43.70;19.80;102115.00;;;;5084501;28;20008;-66
2022/10/09 05:57:59;;;;;;;;;;;21.00;43.70;19.80;102115.00;;;;5074339;28;19924;-66
2022/10/09 06:00:45;;;;;;;;;;;21.00;43.70;19.80;102110.00;;;;5076854;28;19924;-66
2022/10/09 06:03:31;;;;;;;;;;;21.00;43.70;19.80;102113.00;;;;5086616;28;19920;-66
2022/10/09 06:06:17;;;;;;;;;;;21.00;43.70;19.80;102115.00;;;;5079881;28;19921;-67
2022/10/09 06:09:03;;;;;;;;;;;21.00;43.70;19.80;102126.00;;;;5080634;28;20369;-66
2022/10/09 06:11:49;;;;;;;;;;;21.00;43.70;19.80;102118.00;;;;5079430;28;19917;-66
2022/10/09 06:14:35;;;;;;;;;;;20.90;43.70;19.80;102113.00;;;;5092412;28;19919;-66
2022/10/09 06:17:21;;;;;;;;;;;21.00;43.70;19.80;102115.00;;;;5085455;28;19932;-66
2022/10/09 06:20:07;;;;;;;;;;;20.90;43.70;19.80;102129.00;;;;5074923;28;19939;-66
2022/10/09 06:22:53;;;;;;;;;;;21.00;43.70;19.80;102127.00;;;;5050398;28;19920;-66
2022/10/09 06:25:49;;;;;;;;;;;21.00;43.70;19.80;102130.00;;;;5060970;28;19968;-66
2022/10/09 06:28:35;;;;;;;;;;;20.90;43.60;19.80;102132.00;;;;5092812;27;19928;-66
2022/10/09 06:31:23;;;;;;;;;;;21.00;43.70;19.80;102132.00;;;;5092627;28;20320;-66
2022/10/09 06:34:09;;;;;;;;;;;21.00;43.70;19.80;102136.00;;;;5077042;28;20399;-66
2022/10/09 06:36:55;;;;;;;;;;;21.00;43.70;19.80;102135.00;;;;5077007;28;19916;-66
2022/10/09 06:39:41;;;;;;;;;;;21.00;43.70;19.70;102136.00;;;;5076461;28;19947;-67
2022/10/09 06:42:27;;;;;;;;;;;21.00;43.70;19.70;102133.00;;;;5084172;28;19923;-66
2022/10/09 06:45:13;;;;;;;;;;;21.00;43.60;19.70;102132.00;;;;5085383;28;19916;-66
2022/10/09 06:47:59;;;;;;;;;;;21.00;43.60;19.70;102131.00;;;;5078456;28;20221;-66
2022/10/09 06:50:45;;;;;;;;;;;21.00;43.70;19.70;102129.00;;;;5066379;28;19916;-66
2022/10/09 06:53:39;;;;;;;;;;;21.00;43.70;19.70;102132.00;;;;5066494;28;20011;-66
2022/10/09 06:56:26;;;;;;;;;;;21.00;43.70;19.70;102127.00;;;;5102739;28;19916;-66
2022/10/09 06:59:12;;;;;;;;;;;21.00;43.70;19.70;102134.00;;;;5109311;27;19985;-66
2022/10/09 07:01:58;;;;;;;;;;;21.00;43.70;19.70;102141.00;;;;5102251;28;20002;-66
2022/10/09 07:04:45;;;;;;;;;;;21.00;43.60;19.80;102143.00;;;;5100048;28;19928;-66
2022/10/09 07:07:31;;;;;;;;;;;21.00;43.60;19.70;102146.00;;;;5102413;28;19932;-66
2022/10/09 07:10:17;;;;;;;;;;;21.00;43.60;19.70;102156.00;;;;5067547;28;19931;-66
2022/10/09 07:13:03;;;;;;;;;;;21.00;43.60;19.80;102156.00;;;;5082648;28;19916;-66
2022/10/09 07:15:49;;;;;;;;;;;21.00;43.60;19.80;102150.00;;;;5079310;28;19962;-67
2022/10/09 07:18:35;;;;;;;;;;;21.00;43.60;19.80;102152.00;;;;5075547;28;19920;-66
2022/10/09 07:21:23;;;;;;;;;;;21.00;43.60;19.80;102161.00;;;;5097619;28;19920;-66
2022/10/09 07:24:09;;;;;;;;;;;21.10;43.70;19.80;102157.00;;;;5084709;28;19916;-66
2022/10/09 07:26:56;;;;;;;;;;;21.10;43.60;19.80;102163.00;;;;5082124;28;19920;-67
2022/10/09 07:29:42;;;;;;;;;;;21.00;43.60;19.80;102163.00;;;;5088352;28;20293;-66
2022/10/09 07:32:28;;;;;;;;;;;21.00;43.60;19.80;102162.00;;;;5068187;28;19966;-67
2022/10/09 07:35:14;;;;;;;;;;;21.00;43.60;19.80;102163.00;;;;5069388;28;19917;-66
2022/10/09 07:38:00;;;;;;;;;;;21.00;43.50;19.80;102164.00;;;;5073796;28;19920;-66
2022/10/09 07:40:46;;;;;;;;;;;21.00;43.50;19.80;102166.00;;;;5076398;28;19924;-66
2022/10/09 07:43:36;;;;;;;;;;;21.10;43.60;19.80;102174.00;;;;5078671;28;19931;-65
2022/10/09 07:46:22;;;;;;;;;;;21.10;43.60;19.80;102173.00;;;;5062154;28;20484;-65
2022/10/09 07:49:09;;;;;;;;;;;21.10;43.60;19.80;102172.00;;;;5049461;28;20275;-66
2022/10/09 07:51:55;;;;;;;;;;;21.10;43.60;19.80;102168.00;;;;5042439;28;20131;-65
2022/10/09 07:54:41;;;;;;;;;;;21.10;43.60;19.80;102172.00;;;;5069521;28;19920;-65
2022/10/09 07:57:27;;;;;;;;;;;21.10;43.60;19.70;102170.00;;;;5082302;28;20033;-62
2022/10/09 08:00:13;;;;;;;;;;;21.10;43.60;19.70;102172.00;;;;5083448;28;19920;-63
2022/10/09 08:02:59;;;;;;;;;;;21.00;43.50;19.60;102163.00;;;;5066253;28;20425;-63
2022/10/09 08:05:55;;;;;;;;;;;21.00;43.40;19.60;102161.00;;;;5065318;28;19920;-63
2022/10/09 08:08:41;;;;;;;;;;;21.00;43.50;19.60;102163.00;;;;5089900;28;19919;-62
2022/10/09 08:11:27;;;;;;;;;;;21.00;43.50;19.70;102164.00;;;;5070697;28;20011;-63
2022/10/09 08:14:14;;;;;;;;;;;21.00;43.50;19.70;102158.00;;;;5081393;28;19982;-62
2022/10/09 08:17:00;;;;;;;;;;;21.00;43.60;19.70;102150.00;;;;5081525;28;20359;-63
2022/10/09 08:19:46;;;;;;;;;;;21.00;43.60;19.70;102155.00;;;;5082890;28;19920;-62
2022/10/09 08:22:32;;;;;;;;;;;21.00;43.60;19.70;102149.00;;;;5082306;28;20317;-62
2022/10/09 08:25:18;;;;;;;;;;;21.00;43.60;19.70;102146.00;;;;5082561;28;19924;-62
2022/10/09 08:28:04;;;;;;;;;;;21.00;43.60;19.70;102154.00;;;;5086638;28;19927;-63
2022/10/09 08:30:50;;;;;;;;;;;21.00;43.60;19.70;102149.00;;;;5083385;28;19923;-62
2022/10/09 08:33:36;;;;;;;;;;;21.00;43.60;19.80;102142.00;;;;5085410;28;19920;-63
2022/10/09 08:36:22;;;;;;;;;;;21.00;43.60;19.80;102143.00;;;;5083495;28;19920;-63
2022/10/09 08:39:08;;;;;;;;;;;21.10;43.60;19.80;102147.00;;;;5083579;28;20298;-63
2022/10/09 08:41:55;;;;;;;;;;;21.10;43.70;19.80;102140.00;;;;5085169;28;20376;-63
2022/10/09 08:44:48;;;;;;;;;;;21.10;43.70;19.80;102149.00;;;;5078127;28;19924;-65
2022/10/09 08:47:42;;;;;;;;;;;21.10;43.60;19.80;102141.00;;;;5065683;28;19960;-65
2022/10/09 08:50:37;;;;;;;;;;;21.10;43.60;19.80;102139.00;;;;5087759;28;20014;-65
2022/10/09 08:53:22;;;;;;;;;;;21.10;43.60;19.80;102137.00;;;;5077352;28;19916;-65
2022/10/09 08:56:11;;;;;;;;;;;21.10;43.60;19.80;102137.00;;;;5081088;28;19945;-65
2022/10/09 08:58:57;;;;;;;;;;;21.10;43.60;19.80;102136.00;;;;5065404;28;19935;-65
2022/10/09 09:01:48;;;;;;;;;;;21.20;43.70;19.80;102147.00;;;;5094321;28;19932;-65
2022/10/09 09:04:45;;;;;;;;;;;21.20;43.70;19.90;102142.00;;;;5079065;28;19946;-65
2022/10/09 09:07:34;;;;;;;;;;;21.20;43.70;19.90;102140.00;;;;5080393;28;20002;-66
2022/10/09 09:10:33;;;;;;;;;;;21.20;43.70;19.90;102129.00;;;;5076243;28;19927;-65
2022/10/09 09:13:40;;;;;;;;;;;21.20;43.70;19.90;102129.00;;;;5076518;28;19928;-66
2022/10/09 09:16:47;;;;;;;;;;;21.20;43.70;19.90;102125.00;;;;5077798;28;19924;-66
2022/10/09 09:19:36;;;;;;;;;;;21.20;43.70;19.90;102119.00;;;;5074140;28;20153;-65
2022/10/09 09:22:23;;;;;;;;;;;21.20;43.70;19.90;102109.00;;;;5082900;28;20353;-65
2022/10/09 09:25:33;;;;;;;;;;;21.20;43.70;19.90;102114.00;;;;5073981;28;19920;-65
2022/10/09 09:28:30;;;;;;;;;;;21.20;43.70;19.90;102105.00;;;;5072786;28;19931;-65
2022/10/09 09:31:22;;;;;;;;;;;21.20;43.70;19.90;102100.00;;;;5080523;28;19921;-65
2022/10/09 09:34:09;;;;;;;;;;;21.20;43.70;19.90;102102.00;;;;5100328;28;19920;-65
2022/10/09 09:36:58;;;;;;;;;;;21.30;43.70;19.90;102102.00;;;;5100214;28;19924;-65
2022/10/09 09:39:44;;;;;;;;;;;21.30;43.70;20.00;102092.00;;;;5099224;28;19920;-65
2022/10/09 09:42:30;;;;;;;;;;;21.30;43.70;20.00;102088.00;;;;5117530;27;19920;-65
2022/10/09 09:45:19;;;;;;;;;;;21.30;43.70;20.00;102092.00;;;;5119848;27;20101;-66
2022/10/09 09:48:08;;;;;;;;;;;21.30;44.30;20.00;102090.00;;;;5105216;28;20499;-66
2022/10/09 09:50:54;;;;;;;;;;;21.30;43.70;20.00;102084.00;;;;5116585;27;19927;-65
2022/10/09 09:54:13;;;;;;;;;;;21.30;43.70;20.00;102074.00;;;;5109352;28;20364;-65
2022/10/09 09:57:00;;;;;;;;;;;21.30;43.60;20.00;102070.00;;;;5109568;27;20382;-65
2022/10/09 09:59:46;;;;;;;;;;;21.30;43.60;20.00;102064.00;;;;5069547;28;19974;-65
2022/10/09 10:02:31;;;;;;;;;;;21.40;43.70;20.00;102061.00;;;;5089783;28;20386;-65
2022/10/09 10:05:23;;;;;;;;;;;21.40;43.70;20.00;102060.00;;;;5085168;28;20521;-70
2022/10/09 10:08:22;;;;;;;;;;;21.40;43.70;20.00;102056.00;;;;5077876;28;20447;-66
2022/10/09 10:11:15;;;;;;;;;;;21.40;43.70;20.00;102050.00;;;;5086896;28;19923;-66
2022/10/09 10:14:05;;;;;;;;;;;21.40;43.70;20.00;102046.00;;;;5056140;28;19920;-66
2022/10/09 10:16:52;;;;;;;;;;;21.40;43.70;20.00;102045.00;;;;5097636;28;19923;-66
2022/10/09 10:19:39;;;;;;;;;;;21.40;43.70;20.00;102058.00;;;;5080028;28;20022;-66
2022/10/09 10:22:25;;;;;;;;;;;21.40;43.70;20.10;102046.00;;;;5083279;28;19962;-66
2022/10/09 10:25:14;;;;;;;;;;;21.40;43.70;20.10;102050.00;;;;5082136;28;19916;-66
2022/10/09 10:28:04;;;;;;;;;;;21.40;43.70;20.00;102043.00;;;;5083853;27;20230;-66
2022/10/09 10:30:50;;;;;;;;;;;21.40;43.70;20.10;102052.00;;;;5072601;28;19924;-66
2022/10/09 10:33:36;;;;;;;;;;;21.40;43.70;20.10;102040.00;;;;5071168;28;19920;-66
2022/10/09 10:36:23;;;;;;;;;;;21.50;43.70;20.10;102029.00;;;;5096914;27;19923;-66
2022/10/09 10:39:18;;;;;;;;;;;21.50;43.70;20.10;102023.00;;;;5079886;28;20290;-66
2022/10/09 10:42:06;;;;;;;;;;;21.40;43.70;20.10;102028.00;;;;5070250;28;19916;-66
2022/10/09 10:45:15;;;;;;;;;;;21.50;43.70;20.10;102020.00;;;;5094836;28;19928;-66
2022/10/09 10:48:01;;;;;;;;;;;21.50;43.70;20.10;102026.00;;;;5086374;28;20353;-66
2022/10/09 10:51:05;;;;;;;;;;;21.50;43.70;20.10;102023.00;;;;5046739;28;19916;-66
2022/10/09 10:54:07;;;;;;;;;;;21.50;43.70;20.10;102009.00;;;;5066662;28;19932;-66
2022/10/09 10:57:47;;;;;;;;;;;21.50;43.70;20.10;102005.00;;;;5058759;28;19920;-67
2022/10/09 11:00:33;;;;;;;;;;;21.50;43.70;20.10;102011.00;;;;5016172;28;19928;-66
2022/10/09 11:03:33;;;;;;;;;;;21.50;43.70;20.10;102002.00;;;;5019576;28;20378;-66
2022/10/09 11:06:21;;;;;;;;;;;21.50;43.70;20.10;102003.00;;;;5082407;28;19920;-66
2022/10/09 11:09:16;;;;;;;;;;;21.50;43.70;20.10;101994.00;;;;5079842;28;19920;-66
2022/10/09 11:12:30;;;;;;;;;;;21.50;43.70;20.10;101987.00;;;;5085834;28;20015;-66
2022/10/09 11:15:36;;;;;;;;;;;21.50;43.70;20.10;101980.00;;;;5086953;28;20011;-66
2022/10/09 11:18:34;;;;;;;;;;;21.50;43.70;20.10;101977.00;;;;5086866;28;19920;-67
2022/10/09 11:21:43;;;;;;;;;;;21.50;43.70;20.10;101973.00;;;;5062198;28;19924;-67
2022/10/09 11:25:05;;;;;;;;;;;21.50;43.70;20.10;101976.00;;;;5079697;28;19941;-67
2022/10/09 11:28:09;;;;;;;;;;;21.50;43.70;20.20;101965.00;;;;5067914;28;19919;-66
2022/10/09 11:31:08;;;;;;;;;;;21.50;43.70;20.20;101966.00;;;;5087832;28;19956;-66
2022/10/09 11:33:58;;;;;;;;;;;21.50;43.70;20.20;101956.00;;;;5078962;28;19923;-66
2022/10/09 11:36:44;;;;;;;;;;;21.50;43.70;20.20;101943.00;;;;5072444;28;20340;-66
2022/10/09 11:39:30;;;;;;;;;;;21.60;43.80;20.20;101940.00;;;;5068990;28;20429;-66
2022/10/09 11:42:19;;;;;;;;;;;21.60;43.70;20.20;101936.00;;;;5084348;28;20285;-66
2022/10/09 11:45:20;;;;;;;;;;;21.60;43.80;20.20;101929.00;;;;5052508;28;19916;-67
2022/10/09 11:48:15;;;;;;;;;;;21.60;43.80;20.20;101929.00;;;;5065592;28;19920;-66
2022/10/09 11:51:10;;;;;;;;;;;21.60;43.70;20.20;101919.00;;;;5081446;28;20290;-66
2022/10/09 11:53:56;;;;;;;;;;;21.60;43.80;20.20;101922.00;;;;5090277;27;19917;-67
2022/10/09 11:56:54;;;;;;;;;;;21.60;43.70;20.20;101912.00;;;;5093736;28;19916;-66
2022/10/09 11:59:41;;;;;;;;;;;21.60;43.70;20.20;101908.00;;;;5086332;28;19931;-67
2022/10/09 12:02:27;;;;;;;;;;;21.60;43.70;20.20;101906.00;;;;5090870;27;19924;-66
2022/10/09 12:05:38;;;;;;;;;;;21.60;43.70;20.20;101901.00;;;;5078087;28;19916;-67
2022/10/09 12:08:25;;;;;;;;;;;21.60;43.70;20.20;101897.00;;;;5068419;28;19927;-67
2022/10/09 12:11:13;;;;;;;;;;;21.60;43.70;20.20;101887.00;;;;5070450;28;19927;-66
2022/10/09 12:14:03;;;;;;;;;;;21.60;43.70;20.20;101884.00;;;;5064605;28;19920;-66
2022/10/09 12:16:49;;;;;;;;;;;21.60;43.70;20.20;101881.00;;;;5095623;27;19920;-66
2022/10/09 12:19:37;;;;;;;;;;;21.70;43.70;20.20;101875.00;;;;5078469;28;19927;-66
2022/10/09 12:22:28;;;;;;;;;;;21.70;43.70;20.20;101870.00;;;;5073230;28;19979;-67
2022/10/09 12:25:31;;;;;;;;;;;21.70;43.70;20.30;101875.00;;;;5091596;28;19920;-66
2022/10/09 12:28:28;;;;;;;;;;;21.70;43.70;20.30;101873.00;;;;5064989;28;19948;-66
2022/10/09 12:31:36;;;;;;;;;;;21.70;43.70;20.30;101864.00;;;;5101368;27;20506;-66
2022/10/09 12:34:28;;;;;;;;;;;21.60;43.60;20.30;101861.00;;;;5109218;27;20386;-66
2022/10/09 12:37:21;;;;;;;;;;;21.70;43.70;20.30;101864.00;;;;5105433;28;19923;-67
2022/10/09 12:40:11;;;;;;;;;;;21.70;43.60;20.30;101855.00;;;;5080356;28;19930;-66
2022/10/09 12:42:58;;;;;;;;;;;21.70;43.60;20.30;101847.00;;;;5082438;28;19916;-66
2022/10/09 12:45:44;;;;;;;;;;;21.70;43.60;20.30;101839.00;;;;5096088;28;19915;-66
2022/10/09 12:48:34;;;;;;;;;;;21.70;43.60;20.30;101844.00;;;;5099709;28;19927;-67
2022/10/09 12:51:22;;;;;;;;;;;21.70;43.60;20.30;101835.00;;;;5079059;28;19963;-66
2022/10/09 12:54:08;;;;;;;;;;;21.80;43.60;20.40;101825.00;;;;5098772;28;19947;-66
2022/10/09 12:56:55;;;;;;;;;;;21.80;43.60;20.40;101819.00;;;;5094177;28;20337;-66
2022/10/09 12:59:42;;;;;;;;;;;21.80;43.60;20.40;101823.00;;;;5107092;28;19920;-67
2022/10/09 13:02:28;;;;;;;;;;;21.80;43.60;20.40;101815.00;;;;5110269;28;19923;-66
2022/10/09 13:05:14;;;;;;;;;;;21.80;43.60;20.40;101810.00;;;;5105766;28;20379;-66
2022/10/09 13:08:00;;;;;;;;;;;21.80;43.60;20.40;101791.00;;;;5106823;27;19920;-67
2022/10/09 13:10:46;;;;;;;;;;;21.80;43.60;20.40;101794.00;;;;5092266;28;20257;-67
2022/10/09 13:13:32;;;;;;;;;;;21.80;43.50;20.40;101787.00;;;;5097777;28;20365;-66
2022/10/09 13:16:18;;;;;;;;;;;21.80;43.50;20.40;101789.00;;;;5106257;28;19919;-66
2022/10/09 13:19:24;;;;;;;;;;;21.90;43.60;20.50;101787.00;;;;5109127;27;20262;-66
2022/10/09 13:22:13;;;;;;;;;;;21.90;43.60;20.40;101772.00;;;;5116581;27;19916;-66
2022/10/09 13:24:59;;;;;;;;;;;21.90;43.50;20.40;101773.00;;;;5097762;28;19962;-66
2022/10/09 13:27:45;;;;;;;;;;;21.90;43.50;20.50;101765.00;;;;5101341;28;19916;-66
2022/10/09 13:30:31;;;;;;;;;;;21.90;43.50;20.50;101759.00;;;;5083320;28;20151;-66
2022/10/09 13:33:17;;;;;;;;;;;21.90;43.50;20.50;101757.00;;;;5100504;28;20008;-66
2022/10/09 13:36:03;;;;;;;;;;;21.90;43.50;20.50;101752.00;;;;5103139;28;20237;-66
2022/10/09 13:38:49;;;;;;;;;;;21.90;43.50;20.50;101753.00;;;;5097649;28;19963;-66